PWSweather.com
Personal Weather Stations
Station Observations
KMDSOLOM1
solomons, Solomons, MD 20688

solomonsSolomons, MD 20688

Lat: 38.32, Lon: -76.45

Elevation: 5

Station Type:

http://www.act-us.info/weather

High Low Average
Temperature 82.0°F27.8°C 58.3°F14.6°C 66.9°F19.4°C
Dew Point 66.1°F18.9°C 53.5°F11.9°C 59.9°F15.5°C
Winds 21.0 mph 33.8 kmh Calm Calm 5.0 mph S8.0 kmh S
Wind Gusts 27.0 mph43.5 kmh -- 10.0 mph16.1 kmh
Humidity 97% 52% 80%
Pressure 29.98 in1015.2 mb 29.66 in1004.4 mb -
Precipitation 0.00 in0.0 mm - -
Hour Temp Dew Point Humidity Winds Wind Gusts Pressure Precip Precip Rate Daily Precip Total
12:00 AM 58.3°F14.6°C 53.5°F11.9°C 84% 7.0 mph SE11.3 kmh SE 9.0 mph14.5 kmh 29.98 in1015.2 mb 0.00 in0.0 mm 0.00 in0.0 mm 0.00 in0.0 mm
12:05 AM 58.5°F14.7°C 53.7°F12.1°C 84% 2.0 mph SE3.2 kmh SE 9.0 mph14.5 kmh 29.98 in1015.2 mb 0.00 in0.0 mm 0.00 in0.0 mm 0.00 in0.0 mm
12:10 AM 58.6°F14.8°C 53.5°F11.9°C 83% 3.0 mph ESE4.8 kmh ESE 7.0 mph11.3 kmh 29.97 in1014.9 mb 0.00 in0.0 mm 0.00 in0.0 mm 0.00 in0.0 mm
12:15 AM 58.8°F14.9°C 53.7°F12.1°C 83% 4.0 mph SE6.4 kmh SE 8.0 mph12.9 kmh 29.97 in1014.9 mb 0.00 in0.0 mm 0.00 in0.0 mm 0.00 in0.0 mm
12:20 AM 59.1°F15.1°C 54.0°F12.2°C 83% 2.0 mph ESE3.2 kmh ESE 11.0 mph17.7 kmh 29.97 in1014.9 mb 0.00 in0.0 mm 0.00 in0.0 mm 0.00 in0.0 mm
12:25 AM 59.1°F15.1°C 53.6°F12.0°C 82% 5.0 mph SE8.0 kmh SE 7.0 mph11.3 kmh 29.97 in1014.9 mb 0.00 in0.0 mm 0.00 in0.0 mm 0.00 in0.0 mm
12:30 AM 59.1°F15.1°C 54.0°F12.2°C 83% 6.0 mph ESE9.7 kmh ESE 8.0 mph12.9 kmh 29.97 in1014.9 mb 0.00 in0.0 mm 0.00 in0.0 mm 0.00 in0.0 mm
12:35 AM 59.4°F15.2°C 54.2°F12.3°C 83% 2.0 mph SE3.2 kmh SE 9.0 mph14.5 kmh 29.97 in1014.9 mb 0.00 in0.0 mm 0.00 in0.0 mm 0.00 in0.0 mm
12:40 AM 59.6°F15.3°C 54.4°F12.4°C 83% 5.0 mph SE8.0 kmh SE 10.0 mph16.1 kmh 29.97 in1014.9 mb 0.00 in0.0 mm 0.00 in0.0 mm 0.00 in0.0 mm
12:45 AM 59.9°F15.5°C 54.7°F12.6°C 83% 2.0 mph SE3.2 kmh SE 12.0 mph19.3 kmh 29.97 in1014.9 mb 0.00 in0.0 mm 0.00 in0.0 mm 0.00 in0.0 mm
12:50 AM 60.0°F15.6°C 54.8°F12.7°C 83% 2.0 mph SE3.2 kmh SE 13.0 mph20.9 kmh 29.97 in1014.9 mb 0.00 in0.0 mm 0.00 in0.0 mm 0.00 in0.0 mm
12:55 AM 60.0°F15.6°C 55.2°F12.9°C 84% 3.0 mph SE4.8 kmh SE 7.0 mph11.3 kmh 29.96 in1014.6 mb 0.00 in0.0 mm 0.00 in0.0 mm 0.00 in0.0 mm
01:00 AM 59.9°F15.5°C 55.4°F13.0°C 85% 4.0 mph SE6.4 kmh SE 12.0 mph19.3 kmh 29.96 in1014.6 mb 0.01 in0.3 mm 0.01 in0.3 mm 0.01 in0.3 mm
01:05 AM 59.8°F15.4°C 55.6°F13.1°C 86% 2.0 mph SE3.2 kmh SE 12.0 mph19.3 kmh 29.95 in1014.2 mb 0.01 in0.3 mm 0.00 in0.0 mm 0.01 in0.3 mm
01:10 AM 59.7°F15.4°C 55.5°F13.1°C 86% 4.0 mph SE6.4 kmh SE 5.0 mph8.0 kmh 29.94 in1013.9 mb 0.01 in0.3 mm 0.00 in0.0 mm 0.01 in0.3 mm
01:15 AM 59.5°F15.3°C 55.6°F13.1°C 87% 6.0 mph SE9.7 kmh SE 10.0 mph16.1 kmh 29.94 in1013.9 mb 0.01 in0.3 mm 0.00 in0.0 mm 0.01 in0.3 mm
01:20 AM 59.3°F15.2°C 55.4°F13.0°C 87% 3.0 mph SE4.8 kmh SE 10.0 mph16.1 kmh 29.94 in1013.9 mb 0.01 in0.3 mm 0.00 in0.0 mm 0.01 in0.3 mm
01:25 AM 59.1°F15.1°C 55.2°F12.9°C 87% 4.0 mph SE6.4 kmh SE 7.0 mph11.3 kmh 29.93 in1013.5 mb 0.01 in0.3 mm 0.00 in0.0 mm 0.01 in0.3 mm
01:30 AM 58.9°F14.9°C 55.0°F12.8°C 87% 3.0 mph SE4.8 kmh SE 10.0 mph16.1 kmh 29.92 in1013.2 mb 0.01 in0.3 mm 0.00 in0.0 mm 0.01 in0.3 mm
01:35 AM 58.7°F14.8°C 54.9°F12.7°C 87% 4.0 mph SE6.4 kmh SE 10.0 mph16.1 kmh 29.93 in1013.5 mb 0.01 in0.3 mm 0.00 in0.0 mm 0.01 in0.3 mm
01:40 AM 58.6°F14.8°C 55.1°F12.8°C 88% 7.0 mph E11.3 kmh E 9.0 mph14.5 kmh 29.92 in1013.2 mb 0.01 in0.3 mm 0.00 in0.0 mm 0.01 in0.3 mm
01:45 AM 58.6°F14.8°C 55.1°F12.8°C 88% 1.0 mph SE1.6 kmh SE 9.0 mph14.5 kmh 29.92 in1013.2 mb 0.02 in0.5 mm 0.12 in3.0 mm 0.02 in0.5 mm
01:50 AM 58.6°F14.8°C 55.1°F12.8°C 88% 4.0 mph SE6.4 kmh SE 9.0 mph14.5 kmh 29.92 in1013.2 mb 0.02 in0.5 mm 0.00 in0.0 mm 0.02 in0.5 mm
01:55 AM 58.7°F14.8°C 55.2°F12.9°C 88% 5.0 mph SE8.0 kmh SE 8.0 mph12.9 kmh 29.92 in1013.2 mb 0.02 in0.5 mm 0.00 in0.0 mm 0.02 in0.5 mm
02:00 AM 58.9°F14.9°C 55.4°F13.0°C 88% 2.0 mph SE3.2 kmh SE 9.0 mph14.5 kmh 29.92 in1013.2 mb 0.02 in0.5 mm 0.00 in0.0 mm 0.02 in0.5 mm
02:05 AM 59.1°F15.1°C 55.6°F13.1°C 88% 1.0 mph SE1.6 kmh SE 9.0 mph14.5 kmh 29.92 in1013.2 mb 0.02 in0.5 mm 0.00 in0.0 mm 0.02 in0.5 mm
02:10 AM 59.3°F15.2°C 55.4°F13.0°C 87% 3.0 mph SE4.8 kmh SE 5.0 mph8.0 kmh 29.91 in1012.9 mb 0.01 in0.3 mm 0.00 in0.0 mm 0.02 in0.5 mm
02:15 AM 59.6°F15.3°C 55.7°F13.2°C 87% 1.0 mph SE1.6 kmh SE 10.0 mph16.1 kmh 29.91 in1012.9 mb 0.01 in0.3 mm 0.00 in0.0 mm 0.02 in0.5 mm
02:20 AM 59.9°F15.5°C 56.0°F13.3°C 87% 1.0 mph SE1.6 kmh SE 10.0 mph16.1 kmh 29.90 in1012.5 mb 0.01 in0.3 mm 0.00 in0.0 mm 0.02 in0.5 mm
02:25 AM 60.2°F15.7°C 56.0°F13.3°C 86% 5.0 mph SSE8.0 kmh SSE 8.0 mph12.9 kmh 29.90 in1012.5 mb 0.01 in0.3 mm 0.00 in0.0 mm 0.02 in0.5 mm
02:30 AM 60.4°F15.8°C 56.2°F13.4°C 86% 9.0 mph SE14.5 kmh SE 12.0 mph19.3 kmh 29.90 in1012.5 mb 0.01 in0.3 mm 0.00 in0.0 mm 0.02 in0.5 mm
02:35 AM 60.6°F15.9°C 56.1°F13.4°C 85% 1.0 mph SE1.6 kmh SE 12.0 mph19.3 kmh 29.90 in1012.5 mb 0.01 in0.3 mm 0.00 in0.0 mm 0.02 in0.5 mm
02:40 AM 60.6°F15.9°C 56.1°F13.4°C 85% 2.0 mph SE3.2 kmh SE 4.0 mph6.4 kmh 29.90 in1012.5 mb 0.01 in0.3 mm 0.00 in0.0 mm 0.02 in0.5 mm
02:45 AM 60.6°F15.9°C 56.1°F13.4°C 85% 2.0 mph SE3.2 kmh SE 9.0 mph14.5 kmh 29.90 in1012.5 mb 0.01 in0.3 mm 0.00 in0.0 mm 0.02 in0.5 mm
02:50 AM 60.6°F15.9°C 56.1°F13.4°C 85% Calm Calm 9.0 mph14.5 kmh 29.90 in1012.5 mb 0.01 in0.3 mm 0.00 in0.0 mm 0.02 in0.5 mm
02:55 AM 60.7°F15.9°C 56.2°F13.4°C 85% 7.0 mph SE11.3 kmh SE 7.0 mph11.3 kmh 29.89 in1012.2 mb 0.00 in0.0 mm 0.00 in0.0 mm 0.02 in0.5 mm
03:00 AM 60.7°F15.9°C 56.2°F13.4°C 85% 2.0 mph SE3.2 kmh SE 7.0 mph11.3 kmh 29.90 in1012.5 mb 0.00 in0.0 mm 0.00 in0.0 mm 0.02 in0.5 mm
03:05 AM 60.7°F15.9°C 56.2°F13.4°C 85% 6.0 mph SSE9.7 kmh SSE 11.0 mph17.7 kmh 29.89 in1012.2 mb 0.00 in0.0 mm 0.00 in0.0 mm 0.02 in0.5 mm
03:10 AM 60.7°F15.9°C 56.2°F13.4°C 85% 8.0 mph SE12.9 kmh SE 8.0 mph12.9 kmh 29.89 in1012.2 mb 0.00 in0.0 mm 0.00 in0.0 mm 0.02 in0.5 mm
03:15 AM 60.8°F16.0°C 56.3°F13.5°C 85% 3.0 mph SE4.8 kmh SE 12.0 mph19.3 kmh 29.88 in1011.9 mb 0.00 in0.0 mm 0.00 in0.0 mm 0.02 in0.5 mm
03:20 AM 60.9°F16.1°C 56.4°F13.6°C 85% 5.0 mph SE8.0 kmh SE 12.0 mph19.3 kmh 29.89 in1012.2 mb 0.00 in0.0 mm 0.00 in0.0 mm 0.02 in0.5 mm
03:25 AM 61.0°F16.1°C 56.5°F13.6°C 85% 4.0 mph S6.4 kmh S 6.0 mph9.7 kmh 29.89 in1012.2 mb 0.00 in0.0 mm 0.00 in0.0 mm 0.02 in0.5 mm
03:30 AM 61.1°F16.2°C 56.6°F13.7°C 85% 4.0 mph SE6.4 kmh SE 8.0 mph12.9 kmh 29.89 in1012.2 mb 0.00 in0.0 mm 0.00 in0.0 mm 0.02 in0.5 mm
03:35 AM 61.1°F16.2°C 56.6°F13.7°C 85% 1.0 mph SSE1.6 kmh SSE 9.0 mph14.5 kmh 29.89 in1012.2 mb 0.00 in0.0 mm 0.00 in0.0 mm 0.02 in0.5 mm
03:40 AM 61.1°F16.2°C 56.6°F13.7°C 85% 1.0 mph SE1.6 kmh SE 5.0 mph8.0 kmh 29.88 in1011.9 mb 0.00 in0.0 mm 0.00 in0.0 mm 0.02 in0.5 mm
03:45 AM 61.2°F16.2°C 56.7°F13.7°C 85% 1.0 mph SE1.6 kmh SE 5.0 mph8.0 kmh 29.88 in1011.9 mb 0.00 in0.0 mm 0.00 in0.0 mm 0.02 in0.5 mm
03:50 AM 61.2°F16.2°C 56.7°F13.7°C 85% 1.0 mph SE1.6 kmh SE 8.0 mph12.9 kmh 29.88 in1011.9 mb 0.00 in0.0 mm 0.00 in0.0 mm 0.02 in0.5 mm
03:55 AM 61.2°F16.2°C 56.7°F13.7°C 85% 4.0 mph S6.4 kmh S 7.0 mph11.3 kmh 29.88 in1011.9 mb 0.00 in0.0 mm 0.00 in0.0 mm 0.02 in0.5 mm
04:00 AM 61.2°F16.2°C 56.7°F13.7°C 85% 2.0 mph SSE3.2 kmh SSE 9.0 mph14.5 kmh 29.88 in1011.9 mb 0.00 in0.0 mm 0.00 in0.0 mm 0.02 in0.5 mm
04:05 AM 61.3°F16.3°C 56.8°F13.8°C 85% 8.0 mph SSE12.9 kmh SSE 9.0 mph14.5 kmh 29.88 in1011.9 mb 0.00 in0.0 mm 0.00 in0.0 mm 0.02 in0.5 mm
04:10 AM 61.4°F16.3°C 56.9°F13.8°C 85% 4.0 mph S6.4 kmh S 6.0 mph9.7 kmh 29.88 in1011.9 mb 0.00 in0.0 mm 0.00 in0.0 mm 0.02 in0.5 mm
04:15 AM 61.4°F16.3°C 56.9°F13.8°C 85% 3.0 mph S4.8 kmh S 8.0 mph12.9 kmh 29.88 in1011.9 mb 0.00 in0.0 mm 0.00 in0.0 mm 0.02 in0.5 mm
04:20 AM 61.4°F16.3°C 56.9°F13.8°C 85% 4.0 mph S6.4 kmh S 8.0 mph12.9 kmh 29.88 in1011.9 mb 0.00 in0.0 mm 0.00 in0.0 mm 0.02 in0.5 mm
04:25 AM 61.5°F16.4°C 57.0°F13.9°C 85% 4.0 mph SSE6.4 kmh SSE 4.0 mph6.4 kmh 29.87 in1011.5 mb 0.00 in0.0 mm 0.00 in0.0 mm 0.02 in0.5 mm
04:30 AM 61.4°F16.3°C 56.9°F13.8°C 85% 3.0 mph ESE4.8 kmh ESE 11.0 mph17.7 kmh 29.87 in1011.5 mb 0.00 in0.0 mm 0.00 in0.0 mm 0.02 in0.5 mm
04:35 AM 61.5°F16.4°C 57.0°F13.9°C 85% 5.0 mph S8.0 kmh S 11.0 mph17.7 kmh 29.88 in1011.9 mb 0.00 in0.0 mm 0.00 in0.0 mm 0.02 in0.5 mm
04:40 AM 61.5°F16.4°C 57.0°F13.9°C 85% 2.0 mph SE3.2 kmh SE 10.0 mph16.1 kmh 29.87 in1011.5 mb 0.00 in0.0 mm 0.00 in0.0 mm 0.02 in0.5 mm
04:45 AM 61.5°F16.4°C 57.0°F13.9°C 85% 6.0 mph SSE9.7 kmh SSE 10.0 mph16.1 kmh 29.88 in1011.9 mb 0.00 in0.0 mm 0.00 in0.0 mm 0.02 in0.5 mm
04:50 AM 61.6°F16.4°C 57.1°F13.9°C 85% 6.0 mph S9.7 kmh S 11.0 mph17.7 kmh 29.88 in1011.9 mb 0.00 in0.0 mm 0.00 in0.0 mm 0.02 in0.5 mm
04:55 AM 61.6°F16.4°C 57.1°F13.9°C 85% 10.0 mph S16.1 kmh S 13.0 mph20.9 kmh 29.88 in1011.9 mb 0.00 in0.0 mm 0.00 in0.0 mm 0.02 in0.5 mm
05:00 AM 61.6°F16.4°C 57.1°F13.9°C 85% 4.0 mph S6.4 kmh S 14.0 mph22.5 kmh 29.88 in1011.9 mb 0.00 in0.0 mm 0.00 in0.0 mm 0.02 in0.5 mm
05:05 AM 61.6°F16.4°C 57.1°F13.9°C 85% 6.0 mph S9.7 kmh S 14.0 mph22.5 kmh 29.88 in1011.9 mb 0.00 in0.0 mm 0.00 in0.0 mm 0.02 in0.5 mm
05:10 AM 61.6°F16.4°C 57.4°F14.1°C 86% 1.0 mph SSE1.6 kmh SSE 5.0 mph8.0 kmh 29.88 in1011.9 mb 0.00 in0.0 mm 0.00 in0.0 mm 0.02 in0.5 mm
05:15 AM 61.5°F16.4°C 57.3°F14.1°C 86% 2.0 mph S3.2 kmh S 10.0 mph16.1 kmh 29.88 in1011.9 mb 0.00 in0.0 mm 0.00 in0.0 mm 0.02 in0.5 mm
05:20 AM 61.5°F16.4°C 57.3°F14.1°C 86% 4.0 mph S6.4 kmh S 14.0 mph22.5 kmh 29.87 in1011.5 mb 0.00 in0.0 mm 0.00 in0.0 mm 0.02 in0.5 mm
05:25 AM 61.5°F16.4°C 57.3°F14.1°C 86% 8.0 mph SSE12.9 kmh SSE 8.0 mph12.9 kmh 29.87 in1011.5 mb 0.00 in0.0 mm 0.00 in0.0 mm 0.02 in0.5 mm
05:30 AM 61.4°F16.3°C 57.2°F14.0°C 86% 4.0 mph SSE6.4 kmh SSE 9.0 mph14.5 kmh 29.87 in1011.5 mb 0.00 in0.0 mm 0.00 in0.0 mm 0.02 in0.5 mm
05:35 AM 61.4°F16.3°C 57.2°F14.0°C 86% 4.0 mph SSE6.4 kmh SSE 11.0 mph17.7 kmh 29.88 in1011.9 mb 0.00 in0.0 mm 0.00 in0.0 mm 0.02 in0.5 mm
05:40 AM 61.4°F16.3°C 57.2°F14.0°C 86% 5.0 mph SSE8.0 kmh SSE 10.0 mph16.1 kmh 29.88 in1011.9 mb 0.00 in0.0 mm 0.00 in0.0 mm 0.02 in0.5 mm
05:45 AM 61.3°F16.3°C 57.1°F13.9°C 86% 7.0 mph S11.3 kmh S 12.0 mph19.3 kmh 29.89 in1012.2 mb 0.00 in0.0 mm 0.00 in0.0 mm 0.02 in0.5 mm
05:50 AM 61.4°F16.3°C 57.5°F14.2°C 87% 7.0 mph S11.3 kmh S 14.0 mph22.5 kmh 29.89 in1012.2 mb 0.00 in0.0 mm 0.00 in0.0 mm 0.02 in0.5 mm
05:55 AM 61.3°F16.3°C 57.4°F14.1°C 87% 6.0 mph SSE9.7 kmh SSE 10.0 mph16.1 kmh 29.89 in1012.2 mb 0.00 in0.0 mm 0.00 in0.0 mm 0.02 in0.5 mm
06:00 AM 61.3°F16.3°C 57.4°F14.1°C 87% 6.0 mph SSE9.7 kmh SSE 12.0 mph19.3 kmh 29.88 in1011.9 mb 0.00 in0.0 mm 0.00 in0.0 mm 0.02 in0.5 mm
06:05 AM 61.4°F16.3°C 57.5°F14.2°C 87% 11.0 mph SSE17.7 kmh SSE 12.0 mph19.3 kmh 29.88 in1011.9 mb 0.00 in0.0 mm 0.00 in0.0 mm 0.02 in0.5 mm
06:10 AM 61.3°F16.3°C 57.4°F14.1°C 87% 8.0 mph S12.9 kmh S 8.0 mph12.9 kmh 29.89 in1012.2 mb 0.00 in0.0 mm 0.00 in0.0 mm 0.02 in0.5 mm
06:15 AM 61.4°F16.3°C 57.5°F14.2°C 87% 3.0 mph S4.8 kmh S 11.0 mph17.7 kmh 29.88 in1011.9 mb 0.00 in0.0 mm 0.00 in0.0 mm 0.02 in0.5 mm
06:20 AM 61.4°F16.3°C 57.5°F14.2°C 87% 5.0 mph SSE8.0 kmh SSE 13.0 mph20.9 kmh 29.88 in1011.9 mb 0.00 in0.0 mm 0.00 in0.0 mm 0.02 in0.5 mm
06:25 AM 61.5°F16.4°C 57.6°F14.2°C 87% 6.0 mph SSE9.7 kmh SSE 7.0 mph11.3 kmh 29.89 in1012.2 mb 0.00 in0.0 mm 0.00 in0.0 mm 0.02 in0.5 mm
06:30 AM 61.6°F16.4°C 57.7°F14.3°C 87% 4.0 mph S6.4 kmh S 12.0 mph19.3 kmh 29.89 in1012.2 mb 0.00 in0.0 mm 0.00 in0.0 mm 0.02 in0.5 mm
06:35 AM 61.8°F16.6°C 57.9°F14.4°C 87% 7.0 mph S11.3 kmh S 12.0 mph19.3 kmh 29.89 in1012.2 mb 0.00 in0.0 mm 0.00 in0.0 mm 0.02 in0.5 mm
06:40 AM 62.0°F16.7°C 58.1°F14.5°C 87% 6.0 mph S9.7 kmh S 8.0 mph12.9 kmh 29.89 in1012.2 mb 0.00 in0.0 mm 0.00 in0.0 mm 0.02 in0.5 mm
06:45 AM 62.2°F16.8°C 58.3°F14.6°C 87% 7.0 mph SSE11.3 kmh SSE 12.0 mph19.3 kmh 29.89 in1012.2 mb 0.00 in0.0 mm 0.00 in0.0 mm 0.02 in0.5 mm
06:50 AM 62.2°F16.8°C 58.3°F14.6°C 87% 8.0 mph SSE12.9 kmh SSE 12.0 mph19.3 kmh 29.88 in1011.9 mb 0.00 in0.0 mm 0.00 in0.0 mm 0.02 in0.5 mm
06:55 AM 62.4°F16.9°C 58.2°F14.6°C 86% 6.0 mph SSE9.7 kmh SSE 11.0 mph17.7 kmh 29.88 in1011.9 mb 0.00 in0.0 mm 0.00 in0.0 mm 0.02 in0.5 mm
07:00 AM 62.6°F17.0°C 58.4°F14.7°C 86% 9.0 mph S14.5 kmh S 13.0 mph20.9 kmh 29.88 in1011.9 mb 0.00 in0.0 mm 0.00 in0.0 mm 0.02 in0.5 mm
07:05 AM 62.9°F17.2°C 58.7°F14.8°C 86% 10.0 mph SSE16.1 kmh SSE 14.0 mph22.5 kmh 29.89 in1012.2 mb 0.00 in0.0 mm 0.00 in0.0 mm 0.02 in0.5 mm
07:10 AM 63.1°F17.3°C 58.9°F14.9°C 86% 12.0 mph S19.3 kmh S 13.0 mph20.9 kmh 29.88 in1011.9 mb 0.00 in0.0 mm 0.00 in0.0 mm 0.02 in0.5 mm
07:15 AM 63.4°F17.4°C 59.2°F15.1°C 86% 10.0 mph SSE16.1 kmh SSE 15.0 mph24.1 kmh 29.88 in1011.9 mb 0.00 in0.0 mm 0.00 in0.0 mm 0.02 in0.5 mm
07:20 AM 63.7°F17.6°C 59.1°F15.1°C 85% 6.0 mph S9.7 kmh S 15.0 mph24.1 kmh 29.88 in1011.9 mb 0.00 in0.0 mm 0.00 in0.0 mm 0.02 in0.5 mm
07:25 AM 63.9°F17.7°C 59.3°F15.2°C 85% 11.0 mph SSE17.7 kmh SSE 12.0 mph19.3 kmh 29.89 in1012.2 mb 0.00 in0.0 mm 0.00 in0.0 mm 0.02 in0.5 mm
07:30 AM 64.0°F17.8°C 59.4°F15.2°C 85% 7.0 mph S11.3 kmh S 16.0 mph25.7 kmh 29.88 in1011.9 mb 0.00 in0.0 mm 0.00 in0.0 mm 0.02 in0.5 mm
07:35 AM 64.2°F17.9°C 59.6°F15.3°C 85% 12.0 mph SSE19.3 kmh SSE 16.0 mph25.7 kmh 29.87 in1011.5 mb 0.00 in0.0 mm 0.00 in0.0 mm 0.02 in0.5 mm
07:40 AM 64.6°F18.1°C 60.0°F15.6°C 85% 6.0 mph S9.7 kmh S 7.0 mph11.3 kmh 29.87 in1011.5 mb 0.00 in0.0 mm 0.00 in0.0 mm 0.02 in0.5 mm
07:45 AM 64.7°F18.2°C 59.8°F15.4°C 84% 6.0 mph S9.7 kmh S 15.0 mph24.1 kmh 29.87 in1011.5 mb 0.00 in0.0 mm 0.00 in0.0 mm 0.02 in0.5 mm
07:50 AM 64.9°F18.3°C 60.0°F15.6°C 84% 8.0 mph S12.9 kmh S 18.0 mph29.0 kmh 29.87 in1011.5 mb 0.00 in0.0 mm 0.00 in0.0 mm 0.02 in0.5 mm
07:55 AM 65.4°F18.6°C 60.5°F15.8°C 84% 7.0 mph S11.3 kmh S 16.0 mph25.7 kmh 29.87 in1011.5 mb 0.00 in0.0 mm 0.00 in0.0 mm 0.02 in0.5 mm
08:00 AM 65.4°F18.6°C 60.5°F15.8°C 84% 8.0 mph S12.9 kmh S 16.0 mph25.7 kmh 29.87 in1011.5 mb 0.00 in0.0 mm 0.00 in0.0 mm 0.02 in0.5 mm
08:05 AM 65.8°F18.8°C 60.5°F15.8°C 83% 6.0 mph SSE9.7 kmh SSE 16.0 mph25.7 kmh 29.87 in1011.5 mb 0.00 in0.0 mm 0.00 in0.0 mm 0.02 in0.5 mm
08:10 AM 66.0°F18.9°C 60.7°F15.9°C 83% 12.0 mph SSE19.3 kmh SSE 12.0 mph19.3 kmh 29.86 in1011.2 mb 0.00 in0.0 mm 0.00 in0.0 mm 0.02 in0.5 mm
08:15 AM 66.4°F19.1°C 60.7°F15.9°C 82% 7.0 mph S11.3 kmh S 20.0 mph32.2 kmh 29.86 in1011.2 mb 0.00 in0.0 mm 0.00 in0.0 mm 0.02 in0.5 mm
08:20 AM 66.8°F19.3°C 61.1°F16.2°C 82% 7.0 mph SSE11.3 kmh SSE 20.0 mph32.2 kmh 29.87 in1011.5 mb 0.00 in0.0 mm 0.00 in0.0 mm 0.02 in0.5 mm
08:25 AM 66.8°F19.3°C 61.1°F16.2°C 82% 7.0 mph S11.3 kmh S 12.0 mph19.3 kmh 29.86 in1011.2 mb 0.00 in0.0 mm 0.00 in0.0 mm 0.02 in0.5 mm
08:30 AM 67.0°F19.4°C 61.0°F16.1°C 81% 7.0 mph S11.3 kmh S 13.0 mph20.9 kmh 29.86 in1011.2 mb 0.00 in0.0 mm 0.00 in0.0 mm 0.02 in0.5 mm
08:35 AM 67.2°F19.6°C 61.2°F16.2°C 81% 6.0 mph S9.7 kmh S 14.0 mph22.5 kmh 29.86 in1011.2 mb 0.00 in0.0 mm 0.00 in0.0 mm 0.02 in0.5 mm
08:40 AM 67.3°F19.6°C 61.6°F16.4°C 82% 13.0 mph S20.9 kmh S 13.0 mph20.9 kmh 29.86 in1011.2 mb 0.00 in0.0 mm 0.00 in0.0 mm 0.02 in0.5 mm
08:45 AM 67.8°F19.9°C 61.8°F16.6°C 81% 9.0 mph S14.5 kmh S 18.0 mph29.0 kmh 29.86 in1011.2 mb 0.00 in0.0 mm 0.00 in0.0 mm 0.02 in0.5 mm
08:50 AM 67.6°F19.8°C 61.2°F16.2°C 80% 8.0 mph S12.9 kmh S 18.0 mph29.0 kmh 29.85 in1010.8 mb 0.00 in0.0 mm 0.00 in0.0 mm 0.02 in0.5 mm
08:55 AM 67.8°F19.9°C 61.4°F16.3°C 80% 4.0 mph S6.4 kmh S 12.0 mph19.3 kmh 29.85 in1010.8 mb 0.00 in0.0 mm 0.00 in0.0 mm 0.02 in0.5 mm
09:00 AM 68.7°F20.4°C 61.9°F16.6°C 79% 11.0 mph SSE17.7 kmh SSE 15.0 mph24.1 kmh 29.86 in1011.2 mb 0.00 in0.0 mm 0.00 in0.0 mm 0.02 in0.5 mm
09:05 AM 68.8°F20.4°C 62.0°F16.7°C 79% 10.0 mph SSE16.1 kmh SSE 20.0 mph32.2 kmh 29.86 in1011.2 mb 0.00 in0.0 mm 0.00 in0.0 mm 0.02 in0.5 mm
09:10 AM 68.6°F20.3°C 61.8°F16.6°C 79% 2.0 mph SSW3.2 kmh SSW 9.0 mph14.5 kmh 29.86 in1011.2 mb 0.00 in0.0 mm 0.00 in0.0 mm 0.02 in0.5 mm
09:15 AM 69.3°F20.7°C 62.2°F16.8°C 78% 12.0 mph SSE19.3 kmh SSE 18.0 mph29.0 kmh 29.85 in1010.8 mb 0.00 in0.0 mm 0.00 in0.0 mm 0.02 in0.5 mm
09:20 AM 69.4°F20.8°C 62.3°F16.8°C 78% 6.0 mph S9.7 kmh S 18.0 mph29.0 kmh 29.85 in1010.8 mb 0.00 in0.0 mm 0.00 in0.0 mm 0.02 in0.5 mm
09:25 AM 69.5°F20.8°C 62.4°F16.9°C 78% 11.0 mph SSE17.7 kmh SSE 12.0 mph19.3 kmh 29.85 in1010.8 mb 0.00 in0.0 mm 0.00 in0.0 mm 0.02 in0.5 mm
09:30 AM 69.9°F21.1°C 62.4°F16.9°C 77% 7.0 mph S11.3 kmh S 18.0 mph29.0 kmh 29.85 in1010.8 mb 0.00 in0.0 mm 0.00 in0.0 mm 0.02 in0.5 mm
09:35 AM 69.9°F21.1°C 62.4°F16.9°C 77% 12.0 mph SSE19.3 kmh SSE 18.0 mph29.0 kmh 29.85 in1010.8 mb 0.00 in0.0 mm 0.00 in0.0 mm 0.02 in0.5 mm
09:40 AM 69.8°F21.0°C 62.3°F16.8°C 77% 6.0 mph SSE9.7 kmh SSE 12.0 mph19.3 kmh 29.85 in1010.8 mb 0.00 in0.0 mm 0.00 in0.0 mm 0.02 in0.5 mm
09:45 AM 69.9°F21.1°C 62.4°F16.9°C 77% 10.0 mph S16.1 kmh S 13.0 mph20.9 kmh 29.84 in1010.5 mb 0.00 in0.0 mm 0.00 in0.0 mm 0.02 in0.5 mm
09:50 AM 70.8°F21.6°C 62.9°F17.2°C 76% 12.0 mph SSW19.3 kmh SSW 20.0 mph32.2 kmh 29.85 in1010.8 mb 0.00 in0.0 mm 0.00 in0.0 mm 0.02 in0.5 mm
09:55 AM 71.0°F21.7°C 63.1°F17.3°C 76% 8.0 mph S12.9 kmh S 15.0 mph24.1 kmh 29.85 in1010.8 mb 0.00 in0.0 mm 0.00 in0.0 mm 0.02 in0.5 mm
10:00 AM 71.3°F21.8°C 63.0°F17.2°C 75% 9.0 mph S14.5 kmh S 15.0 mph24.1 kmh 29.84 in1010.5 mb 0.00 in0.0 mm 0.00 in0.0 mm 0.02 in0.5 mm
10:05 AM 71.8°F22.1°C 63.5°F17.5°C 75% 7.0 mph S11.3 kmh S 15.0 mph24.1 kmh 29.84 in1010.5 mb 0.00 in0.0 mm 0.00 in0.0 mm 0.02 in0.5 mm
10:10 AM 72.7°F22.6°C 63.6°F17.6°C 73% 7.0 mph S11.3 kmh S 7.0 mph11.3 kmh 29.83 in1010.2 mb 0.00 in0.0 mm 0.00 in0.0 mm 0.02 in0.5 mm
10:15 AM 72.3°F22.4°C 63.2°F17.3°C 73% 14.0 mph S22.5 kmh S 14.0 mph22.5 kmh 29.83 in1010.2 mb 0.00 in0.0 mm 0.00 in0.0 mm 0.02 in0.5 mm
10:20 AM 73.3°F22.9°C 64.1°F17.8°C 73% 9.0 mph S14.5 kmh S 14.0 mph22.5 kmh 29.83 in1010.2 mb 0.00 in0.0 mm 0.00 in0.0 mm 0.02 in0.5 mm
10:25 AM 73.2°F22.9°C 63.6°F17.6°C 72% 9.0 mph S14.5 kmh S 9.0 mph14.5 kmh 29.83 in1010.2 mb 0.00 in0.0 mm 0.00 in0.0 mm 0.02 in0.5 mm
10:30 AM 73.5°F23.1°C 64.3°F17.9°C 73% 7.0 mph S11.3 kmh S 12.0 mph19.3 kmh 29.83 in1010.2 mb 0.00 in0.0 mm 0.00 in0.0 mm 0.02 in0.5 mm
10:35 AM 74.5°F23.6°C 64.5°F18.1°C 71% 11.0 mph SSE17.7 kmh SSE 15.0 mph24.1 kmh 29.83 in1010.2 mb 0.00 in0.0 mm 0.00 in0.0 mm 0.02 in0.5 mm
10:40 AM 74.4°F23.6°C 64.0°F17.8°C 70% 5.0 mph S8.0 kmh S 9.0 mph14.5 kmh 29.83 in1010.2 mb 0.00 in0.0 mm 0.00 in0.0 mm 0.02 in0.5 mm
10:45 AM 74.7°F23.7°C 63.9°F17.7°C 69% 9.0 mph S14.5 kmh S 15.0 mph24.1 kmh 29.82 in1009.8 mb 0.00 in0.0 mm 0.00 in0.0 mm 0.02 in0.5 mm
10:50 AM 74.6°F23.7°C 64.6°F18.1°C 71% 5.0 mph S8.0 kmh S 15.0 mph24.1 kmh 29.82 in1009.8 mb 0.00 in0.0 mm 0.00 in0.0 mm 0.02 in0.5 mm
10:55 AM 75.0°F23.9°C 64.2°F17.9°C 69% 11.0 mph SSE17.7 kmh SSE 11.0 mph17.7 kmh 29.82 in1009.8 mb 0.00 in0.0 mm 0.00 in0.0 mm 0.02 in0.5 mm
11:00 AM 75.2°F24.0°C 64.3°F17.9°C 69% 12.0 mph S19.3 kmh S 17.0 mph27.4 kmh 29.82 in1009.8 mb 0.00 in0.0 mm 0.00 in0.0 mm 0.02 in0.5 mm
11:05 AM 76.2°F24.6°C 64.9°F18.3°C 68% 10.0 mph S16.1 kmh S 17.0 mph27.4 kmh 29.82 in1009.8 mb 0.00 in0.0 mm 0.00 in0.0 mm 0.02 in0.5 mm
11:10 AM 75.0°F23.9°C 63.7°F17.6°C 68% 2.0 mph SSE3.2 kmh SSE 5.0 mph8.0 kmh 29.82 in1009.8 mb 0.00 in0.0 mm 0.00 in0.0 mm 0.02 in0.5 mm
11:15 AM 74.8°F23.8°C 64.0°F17.8°C 69% 6.0 mph S9.7 kmh S 12.0 mph19.3 kmh 29.81 in1009.5 mb 0.00 in0.0 mm 0.00 in0.0 mm 0.02 in0.5 mm
11:20 AM 74.5°F23.6°C 63.7°F17.6°C 69% 10.0 mph S16.1 kmh S 12.0 mph19.3 kmh 29.81 in1009.5 mb 0.00 in0.0 mm 0.00 in0.0 mm 0.02 in0.5 mm
11:25 AM 74.8°F23.8°C 64.0°F17.8°C 69% 8.0 mph S12.9 kmh S 12.0 mph19.3 kmh 29.81 in1009.5 mb 0.00 in0.0 mm 0.00 in0.0 mm 0.02 in0.5 mm
11:30 AM 75.6°F24.2°C 64.3°F17.9°C 68% 6.0 mph S9.7 kmh S 14.0 mph22.5 kmh 29.81 in1009.5 mb 0.00 in0.0 mm 0.00 in0.0 mm 0.02 in0.5 mm
11:35 AM 75.7°F24.3°C 64.4°F18.0°C 68% 5.0 mph S8.0 kmh S 14.0 mph22.5 kmh 29.80 in1009.1 mb 0.00 in0.0 mm 0.00 in0.0 mm 0.02 in0.5 mm
11:40 AM 75.8°F24.3°C 64.5°F18.1°C 68% 6.0 mph SSE9.7 kmh SSE 10.0 mph16.1 kmh 29.80 in1009.1 mb 0.00 in0.0 mm 0.00 in0.0 mm 0.02 in0.5 mm
11:45 AM 75.8°F24.3°C 64.5°F18.1°C 68% 4.0 mph S6.4 kmh S 10.0 mph16.1 kmh 29.80 in1009.1 mb 0.00 in0.0 mm 0.00 in0.0 mm 0.02 in0.5 mm
11:50 AM 77.1°F25.1°C 64.9°F18.3°C 66% 7.0 mph S11.3 kmh S 12.0 mph19.3 kmh 29.80 in1009.1 mb 0.00 in0.0 mm 0.00 in0.0 mm 0.02 in0.5 mm
11:55 AM 77.6°F25.3°C 64.9°F18.3°C 65% 4.0 mph S6.4 kmh S 7.0 mph11.3 kmh 29.79 in1008.8 mb 0.00 in0.0 mm 0.00 in0.0 mm 0.02 in0.5 mm
12:00 PM 77.6°F25.3°C 64.9°F18.3°C 65% 3.0 mph SSE4.8 kmh SSE 16.0 mph25.7 kmh 29.78 in1008.5 mb 0.00 in0.0 mm 0.00 in0.0 mm 0.02 in0.5 mm
12:05 PM 78.4°F25.8°C 65.7°F18.7°C 65% 2.0 mph SE3.2 kmh SE 16.0 mph25.7 kmh 29.78 in1008.5 mb 0.00 in0.0 mm 0.00 in0.0 mm 0.02 in0.5 mm
12:10 PM 78.7°F25.9°C 64.6°F18.1°C 62% 9.0 mph SSE14.5 kmh SSE 9.0 mph14.5 kmh 29.78 in1008.5 mb 0.00 in0.0 mm 0.00 in0.0 mm 0.02 in0.5 mm
12:15 PM 79.1°F26.2°C 65.0°F18.3°C 62% 12.0 mph SE19.3 kmh SE 12.0 mph19.3 kmh 29.77 in1008.1 mb 0.00 in0.0 mm 0.00 in0.0 mm 0.02 in0.5 mm
12:20 PM 79.5°F26.4°C 65.4°F18.6°C 62% 7.0 mph SE11.3 kmh SE 17.0 mph27.4 kmh 29.77 in1008.1 mb 0.00 in0.0 mm 0.00 in0.0 mm 0.02 in0.5 mm
12:25 PM 79.7°F26.5°C 65.1°F18.4°C 61% 7.0 mph S11.3 kmh S 11.0 mph17.7 kmh 29.77 in1008.1 mb 0.00 in0.0 mm 0.00 in0.0 mm 0.02 in0.5 mm
12:30 PM 79.7°F26.5°C 65.5°F18.6°C 62% 4.0 mph SE6.4 kmh SE 17.0 mph27.4 kmh 29.76 in1007.8 mb 0.00 in0.0 mm 0.00 in0.0 mm 0.02 in0.5 mm
12:35 PM 79.8°F26.6°C 66.1°F18.9°C 63% 6.0 mph S9.7 kmh S 17.0 mph27.4 kmh 29.76 in1007.8 mb 0.00 in0.0 mm 0.00 in0.0 mm 0.02 in0.5 mm
12:40 PM 79.8°F26.6°C 65.2°F18.4°C 61% 3.0 mph SE4.8 kmh SE 15.0 mph24.1 kmh 29.76 in1007.8 mb 0.00 in0.0 mm 0.00 in0.0 mm 0.02 in0.5 mm
12:45 PM 79.9°F26.6°C 65.3°F18.5°C 61% 9.0 mph SSE14.5 kmh SSE 15.0 mph24.1 kmh 29.75 in1007.5 mb 0.00 in0.0 mm 0.00 in0.0 mm 0.02 in0.5 mm
12:50 PM 79.4°F26.3°C 64.8°F18.2°C 61% 4.0 mph SSE6.4 kmh SSE 15.0 mph24.1 kmh 29.75 in1007.5 mb 0.00 in0.0 mm 0.00 in0.0 mm 0.02 in0.5 mm
12:55 PM 80.2°F26.8°C 65.1°F18.4°C 60% 7.0 mph SE11.3 kmh SE 10.0 mph16.1 kmh 29.75 in1007.5 mb 0.00 in0.0 mm 0.00 in0.0 mm 0.02 in0.5 mm
01:00 PM 80.7°F27.1°C 65.5°F18.6°C 60% 3.0 mph S4.8 kmh S 14.0 mph22.5 kmh 29.75 in1007.5 mb 0.00 in0.0 mm 0.00 in0.0 mm 0.02 in0.5 mm
01:05 PM 80.7°F27.1°C 65.1°F18.4°C 59% 4.0 mph S6.4 kmh S 15.0 mph24.1 kmh 29.75 in1007.5 mb 0.00 in0.0 mm 0.00 in0.0 mm 0.02 in0.5 mm
01:10 PM 80.5°F26.9°C 64.4°F18.0°C 58% 11.0 mph S17.7 kmh S 11.0 mph17.7 kmh 29.74 in1007.1 mb 0.00 in0.0 mm 0.00 in0.0 mm 0.02 in0.5 mm
01:15 PM 80.9°F27.2°C 64.3°F17.9°C 57% 5.0 mph S8.0 kmh S 16.0 mph25.7 kmh 29.75 in1007.5 mb 0.00 in0.0 mm 0.00 in0.0 mm 0.02 in0.5 mm
01:20 PM 80.7°F27.1°C 64.1°F17.8°C 57% 5.0 mph S8.0 kmh S 16.0 mph25.7 kmh 29.74 in1007.1 mb 0.00 in0.0 mm 0.00 in0.0 mm 0.02 in0.5 mm
01:25 PM 81.2°F27.3°C 64.0°F17.8°C 56% 10.0 mph S16.1 kmh S 11.0 mph17.7 kmh 29.74 in1007.1 mb 0.00 in0.0 mm 0.00 in0.0 mm 0.02 in0.5 mm
01:30 PM 81.4°F27.4°C 64.7°F18.2°C 57% 1.0 mph S1.6 kmh S 13.0 mph20.9 kmh 29.74 in1007.1 mb 0.00 in0.0 mm 0.00 in0.0 mm 0.02 in0.5 mm
01:35 PM 82.0°F27.8°C 64.8°F18.2°C 56% 8.0 mph SSE12.9 kmh SSE 13.0 mph20.9 kmh 29.73 in1006.8 mb 0.00 in0.0 mm 0.00 in0.0 mm 0.02 in0.5 mm
01:40 PM 81.5°F27.5°C 63.8°F17.7°C 55% 7.0 mph S11.3 kmh S 9.0 mph14.5 kmh 29.74 in1007.1 mb 0.00 in0.0 mm 0.00 in0.0 mm 0.02 in0.5 mm
01:45 PM 81.8°F27.7°C 63.6°F17.6°C 54% 9.0 mph SSW14.5 kmh SSW 13.0 mph20.9 kmh 29.74 in1007.1 mb 0.00 in0.0 mm 0.00 in0.0 mm 0.02 in0.5 mm
01:50 PM 81.8°F27.7°C 63.0°F17.2°C 53% 8.0 mph SSW12.9 kmh SSW 17.0 mph27.4 kmh 29.74 in1007.1 mb 0.00 in0.0 mm 0.00 in0.0 mm 0.02 in0.5 mm
01:55 PM 81.2°F27.3°C 63.0°F17.2°C 54% 6.0 mph SSW9.7 kmh SSW 9.0 mph14.5 kmh 29.74 in1007.1 mb 0.00 in0.0 mm 0.00 in0.0 mm 0.02 in0.5 mm
02:00 PM 81.5°F27.5°C 62.7°F17.1°C 53% 6.0 mph S9.7 kmh S 14.0 mph22.5 kmh 29.74 in1007.1 mb 0.00 in0.0 mm 0.00 in0.0 mm 0.02 in0.5 mm
02:05 PM 81.6°F27.6°C 62.8°F17.1°C 53% 7.0 mph SSW11.3 kmh SSW 14.0 mph22.5 kmh 29.73 in1006.8 mb 0.00 in0.0 mm 0.00 in0.0 mm 0.02 in0.5 mm
02:10 PM 82.0°F27.8°C 62.7°F17.1°C 52% 4.0 mph S6.4 kmh S 8.0 mph12.9 kmh 29.73 in1006.8 mb 0.00 in0.0 mm 0.00 in0.0 mm 0.02 in0.5 mm
02:15 PM 81.4°F27.4°C 62.6°F17.0°C 53% 4.0 mph S6.4 kmh S 16.0 mph25.7 kmh 29.73 in1006.8 mb 0.00 in0.0 mm 0.00 in0.0 mm 0.02 in0.5 mm
02:20 PM 81.1°F27.3°C 62.9°F17.2°C 54% 11.0 mph S17.7 kmh S 16.0 mph25.7 kmh 29.73 in1006.8 mb 0.00 in0.0 mm 0.00 in0.0 mm 0.02 in0.5 mm
02:25 PM 81.1°F27.3°C 62.9°F17.2°C 54% 8.0 mph SSE12.9 kmh SSE 9.0 mph14.5 kmh 29.73 in1006.8 mb 0.00 in0.0 mm 0.00 in0.0 mm 0.02 in0.5 mm
02:30 PM 81.2°F27.3°C 63.0°F17.2°C 54% 6.0 mph SSW9.7 kmh SSW 12.0 mph19.3 kmh 29.72 in1006.4 mb 0.00 in0.0 mm 0.00 in0.0 mm 0.02 in0.5 mm
02:35 PM 81.5°F27.5°C 63.3°F17.4°C 54% 5.0 mph S8.0 kmh S 12.0 mph19.3 kmh 29.72 in1006.4 mb 0.00 in0.0 mm 0.00 in0.0 mm 0.02 in0.5 mm
02:40 PM 81.9°F27.7°C 63.1°F17.3°C 53% 8.0 mph SSE12.9 kmh SSE 8.0 mph12.9 kmh 29.72 in1006.4 mb 0.00 in0.0 mm 0.00 in0.0 mm 0.02 in0.5 mm
02:45 PM 81.9°F27.7°C 63.1°F17.3°C 53% 5.0 mph S8.0 kmh S 9.0 mph14.5 kmh 29.71 in1006.1 mb 0.00 in0.0 mm 0.00 in0.0 mm 0.02 in0.5 mm
02:50 PM 81.6°F27.6°C 62.8°F17.1°C 53% 2.0 mph S3.2 kmh S 11.0 mph17.7 kmh 29.71 in1006.1 mb 0.00 in0.0 mm 0.00 in0.0 mm 0.02 in0.5 mm
02:55 PM 81.9°F27.7°C 63.1°F17.3°C 53% 5.0 mph S8.0 kmh S 7.0 mph11.3 kmh 29.71 in1006.1 mb 0.00 in0.0 mm 0.00 in0.0 mm 0.02 in0.5 mm
03:00 PM 81.3°F27.4°C 63.1°F17.3°C 54% 3.0 mph SSW4.8 kmh SSW 7.0 mph11.3 kmh 29.70 in1005.8 mb 0.00 in0.0 mm 0.00 in0.0 mm 0.02 in0.5 mm
03:05 PM 80.0°F26.7°C 62.4°F16.9°C 55% 10.0 mph SW16.1 kmh SW 10.0 mph16.1 kmh 29.71 in1006.1 mb 0.00 in0.0 mm 0.00 in0.0 mm 0.02 in0.5 mm
03:10 PM 81.6°F27.6°C 62.3°F16.8°C 52% 4.0 mph S6.4 kmh S 5.0 mph8.0 kmh 29.70 in1005.8 mb 0.00 in0.0 mm 0.00 in0.0 mm 0.02 in0.5 mm
03:15 PM 80.5°F26.9°C 61.8°F16.6°C 53% 4.0 mph SW6.4 kmh SW 8.0 mph12.9 kmh 29.70 in1005.8 mb 0.00 in0.0 mm 0.00 in0.0 mm 0.02 in0.5 mm
03:20 PM 80.8°F27.1°C 62.6°F17.0°C 54% 4.0 mph S6.4 kmh S 10.0 mph16.1 kmh 29.70 in1005.8 mb 0.00 in0.0 mm 0.00 in0.0 mm 0.02 in0.5 mm
03:25 PM 81.8°F27.7°C 62.5°F16.9°C 52% 10.0 mph SSW16.1 kmh SSW 12.0 mph19.3 kmh 29.70 in1005.8 mb 0.00 in0.0 mm 0.00 in0.0 mm 0.02 in0.5 mm
03:30 PM 81.9°F27.7°C 62.6°F17.0°C 52% 9.0 mph SW14.5 kmh SW 13.0 mph20.9 kmh 29.70 in1005.8 mb 0.00 in0.0 mm 0.00 in0.0 mm 0.02 in0.5 mm
03:35 PM 81.9°F27.7°C 62.6°F17.0°C 52% 5.0 mph SSW8.0 kmh SSW 13.0 mph20.9 kmh 29.71 in1006.1 mb 0.00 in0.0 mm 0.00 in0.0 mm 0.02 in0.5 mm
03:40 PM 81.5°F27.5°C 62.7°F17.1°C 53% 3.0 mph SW4.8 kmh SW 3.0 mph4.8 kmh 29.70 in1005.8 mb 0.00 in0.0 mm 0.00 in0.0 mm 0.02 in0.5 mm
03:45 PM 80.2°F26.8°C 62.1°F16.7°C 54% Calm Calm 4.0 mph6.4 kmh 29.69 in1005.4 mb 0.00 in0.0 mm 0.00 in0.0 mm 0.02 in0.5 mm
03:50 PM 80.3°F26.8°C 62.7°F17.1°C 55% 1.0 mph SW1.6 kmh SW 4.0 mph6.4 kmh 29.69 in1005.4 mb 0.00 in0.0 mm 0.00 in0.0 mm 0.02 in0.5 mm
03:55 PM 80.5°F26.9°C 62.3°F16.8°C 54% 2.0 mph SW3.2 kmh SW 2.0 mph3.2 kmh 29.69 in1005.4 mb 0.00 in0.0 mm 0.00 in0.0 mm 0.02 in0.5 mm
04:00 PM 80.8°F27.1°C 63.1°F17.3°C 55% 2.0 mph SW3.2 kmh SW 3.0 mph4.8 kmh 29.69 in1005.4 mb 0.00 in0.0 mm 0.00 in0.0 mm 0.02 in0.5 mm
04:05 PM 80.6°F27.0°C 63.0°F17.2°C 55% 1.0 mph SW1.6 kmh SW 3.0 mph4.8 kmh 29.68 in1005.1 mb 0.00 in0.0 mm 0.00 in0.0 mm 0.02 in0.5 mm
04:10 PM 80.7°F27.1°C 62.5°F16.9°C 54% 2.0 mph SW3.2 kmh SW 2.0 mph3.2 kmh 29.68 in1005.1 mb 0.00 in0.0 mm 0.00 in0.0 mm 0.02 in0.5 mm
04:15 PM 80.6°F27.0°C 63.5°F17.5°C 56% Calm Calm 3.0 mph4.8 kmh 29.68 in1005.1 mb 0.00 in0.0 mm 0.00 in0.0 mm 0.02 in0.5 mm
04:20 PM 80.7°F27.1°C 63.1°F17.3°C 55% Calm Calm 3.0 mph4.8 kmh 29.68 in1005.1 mb 0.00 in0.0 mm 0.00 in0.0 mm 0.02 in0.5 mm
04:25 PM 80.7°F27.1°C 63.1°F17.3°C 55% Calm Calm -- 29.68 in1005.1 mb 0.00 in0.0 mm 0.00 in0.0 mm 0.02 in0.5 mm
04:30 PM 80.4°F26.9°C 62.8°F17.1°C 55% Calm Calm 3.0 mph4.8 kmh 29.67 in1004.7 mb 0.00 in0.0 mm 0.00 in0.0 mm 0.02 in0.5 mm
04:35 PM 79.9°F26.6°C 62.8°F17.1°C 56% Calm Calm 3.0 mph4.8 kmh 29.66 in1004.4 mb 0.00 in0.0 mm 0.00 in0.0 mm 0.02 in0.5 mm
04:40 PM 78.6°F25.9°C 62.1°F16.7°C 57% Calm Calm -- 29.66 in1004.4 mb 0.00 in0.0 mm 0.00 in0.0 mm 0.02 in0.5 mm
04:45 PM 74.2°F23.4°C 59.4°F15.2°C 60% 5.0 mph SE8.0 kmh SE 9.0 mph14.5 kmh 29.66 in1004.4 mb 0.00 in0.0 mm 0.00 in0.0 mm 0.02 in0.5 mm
04:50 PM 68.9°F20.5°C 57.9°F14.4°C 68% 2.0 mph E3.2 kmh E 10.0 mph16.1 kmh 29.68 in1005.1 mb 0.00 in0.0 mm 0.00 in0.0 mm 0.02 in0.5 mm
04:55 PM 68.1°F20.1°C 59.9°F15.5°C 75% 2.0 mph SW3.2 kmh SW 6.0 mph9.7 kmh 29.70 in1005.8 mb 0.00 in0.0 mm 0.00 in0.0 mm 0.02 in0.5 mm
05:00 PM 69.4°F20.8°C 61.9°F16.6°C 77% 9.0 mph W14.5 kmh W 15.0 mph24.1 kmh 29.70 in1005.8 mb 0.00 in0.0 mm 0.00 in0.0 mm 0.02 in0.5 mm
05:05 PM 69.8°F21.0°C 62.3°F16.8°C 77% 3.0 mph NW4.8 kmh NW 15.0 mph24.1 kmh 29.69 in1005.4 mb 0.00 in0.0 mm 0.00 in0.0 mm 0.02 in0.5 mm
05:10 PM 70.2°F21.2°C 62.7°F17.1°C 77% 2.0 mph WSW3.2 kmh WSW 2.0 mph3.2 kmh 29.69 in1005.4 mb 0.00 in0.0 mm 0.00 in0.0 mm 0.02 in0.5 mm
05:15 PM 70.3°F21.3°C 62.4°F16.9°C 76% Calm Calm 6.0 mph9.7 kmh 29.69 in1005.4 mb 0.00 in0.0 mm 0.00 in0.0 mm 0.02 in0.5 mm
05:20 PM 70.4°F21.3°C 62.9°F17.2°C 77% 7.0 mph SW11.3 kmh SW 11.0 mph17.7 kmh 29.72 in1006.4 mb 0.00 in0.0 mm 0.00 in0.0 mm 0.02 in0.5 mm
05:25 PM 69.5°F20.8°C 63.8°F17.7°C 82% 21.0 mph SSW33.8 kmh SSW 21.0 mph33.8 kmh 29.75 in1007.5 mb 0.14 in3.6 mm 1.68 in42.7 mm 0.16 in4.1 mm
05:30 PM 67.3°F19.6°C 63.0°F17.2°C 86% 4.0 mph WSW6.4 kmh WSW 27.0 mph43.5 kmh 29.73 in1006.8 mb 0.49 in12.4 mm 4.20 in106.7 mm 0.51 in13.0 mm
05:35 PM 66.3°F19.1°C 62.6°F17.0°C 88% 5.0 mph WSW8.0 kmh WSW 27.0 mph43.5 kmh 29.73 in1006.8 mb 0.52 in13.2 mm 0.36 in9.1 mm 0.54 in13.7 mm
05:40 PM 65.7°F18.7°C 62.4°F16.9°C 89% 9.0 mph WSW14.5 kmh WSW 10.0 mph16.1 kmh 29.74 in1007.1 mb 0.59 in15.0 mm 0.84 in21.3 mm 0.61 in15.5 mm
05:45 PM 65.1°F18.4°C 62.1°F16.7°C 90% 17.0 mph SW27.4 kmh SW 19.0 mph30.6 kmh 29.74 in1007.1 mb 0.67 in17.0 mm 0.96 in24.4 mm 0.69 in17.5 mm
05:50 PM 64.4°F18.0°C 61.7°F16.5°C 91% 6.0 mph WSW9.7 kmh WSW 19.0 mph30.6 kmh 29.76 in1007.8 mb 0.74 in18.8 mm 0.84 in21.3 mm 0.76 in19.3 mm
05:55 PM 63.8°F17.7°C 61.1°F16.2°C 91% 8.0 mph WSW12.9 kmh WSW 9.0 mph14.5 kmh 29.76 in1007.8 mb 0.76 in19.3 mm 0.24 in6.1 mm 0.78 in19.8 mm
06:00 PM 63.2°F17.3°C 60.5°F15.8°C 91% 8.0 mph WSW12.9 kmh WSW 13.0 mph20.9 kmh 29.76 in1007.8 mb 0.79 in20.1 mm 0.03 in0.8 mm 0.81 in20.6 mm
06:05 PM 62.8°F17.1°C 60.5°F15.8°C 92% 5.0 mph WSW8.0 kmh WSW 13.0 mph20.9 kmh 29.75 in1007.5 mb 0.81 in20.6 mm 0.24 in6.1 mm 0.83 in21.1 mm
06:10 PM 62.5°F16.9°C 60.2°F15.7°C 92% 3.0 mph WSW4.8 kmh WSW 9.0 mph14.5 kmh 29.75 in1007.5 mb 0.82 in20.8 mm 0.12 in3.0 mm 0.84 in21.3 mm
06:15 PM 62.4°F16.9°C 60.1°F15.6°C 92% 3.0 mph WSW4.8 kmh WSW 13.0 mph20.9 kmh 29.75 in1007.5 mb 0.83 in21.1 mm 0.12 in3.0 mm 0.85 in21.6 mm
06:20 PM 62.3°F16.8°C 60.3°F15.7°C 93% 3.0 mph WSW4.8 kmh WSW 13.0 mph20.9 kmh 29.75 in1007.5 mb 0.85 in21.6 mm 0.24 in6.1 mm 0.87 in22.1 mm
06:25 PM 62.3°F16.8°C 60.3°F15.7°C 93% Calm Calm 2.0 mph3.2 kmh 29.75 in1007.5 mb 0.75 in19.1 mm 0.00 in0.0 mm 0.87 in22.1 mm
06:30 PM 62.2°F16.8°C 60.2°F15.7°C 93% Calm Calm 2.0 mph3.2 kmh 29.75 in1007.5 mb 0.75 in19.1 mm 0.00 in0.0 mm 0.87 in22.1 mm
06:35 PM 62.2°F16.8°C 60.2°F15.7°C 93% 1.0 mph WSW1.6 kmh WSW 2.0 mph3.2 kmh 29.75 in1007.5 mb 0.76 in19.3 mm 0.12 in3.0 mm 0.88 in22.4 mm
06:40 PM 62.1°F16.7°C 60.1°F15.6°C 93% 3.0 mph WSW4.8 kmh WSW 4.0 mph6.4 kmh 29.75 in1007.5 mb 0.30 in7.6 mm 0.00 in0.0 mm 0.88 in22.4 mm
06:45 PM 61.9°F16.6°C 59.9°F15.5°C 93% 2.0 mph WSW3.2 kmh WSW 4.0 mph6.4 kmh 29.76 in1007.8 mb 0.31 in7.9 mm 0.12 in3.0 mm 0.89 in22.6 mm
06:50 PM 61.8°F16.6°C 60.1°F15.6°C 94% 3.0 mph SW4.8 kmh SW 5.0 mph8.0 kmh 29.76 in1007.8 mb 0.33 in8.4 mm 0.24 in6.1 mm 0.91 in23.1 mm
06:55 PM 61.9°F16.6°C 60.2°F15.7°C 94% 1.0 mph SW1.6 kmh SW 3.0 mph4.8 kmh 29.76 in1007.8 mb 0.17 in4.3 mm 0.00 in0.0 mm 0.91 in23.1 mm
07:00 PM 61.9°F16.6°C 60.2°F15.7°C 94% 2.0 mph SW3.2 kmh SW 5.0 mph8.0 kmh 29.76 in1007.8 mb 0.18 in4.6 mm 0.01 in0.3 mm 0.92 in23.4 mm
07:05 PM 61.9°F16.6°C 60.2°F15.7°C 94% 2.0 mph SW3.2 kmh SW 5.0 mph8.0 kmh 29.76 in1007.8 mb 0.19 in4.8 mm 0.12 in3.0 mm 0.93 in23.6 mm
07:10 PM 61.7°F16.5°C 60.0°F15.6°C 94% 2.0 mph SW3.2 kmh SW 4.0 mph6.4 kmh 29.76 in1007.8 mb 0.14 in3.6 mm 0.00 in0.0 mm 0.93 in23.6 mm
07:15 PM 61.2°F16.2°C 59.5°F15.3°C 94% 2.0 mph SW3.2 kmh SW 4.0 mph6.4 kmh 29.77 in1008.1 mb 0.15 in3.8 mm 0.12 in3.0 mm 0.94 in23.9 mm
07:20 PM 61.0°F16.1°C 59.3°F15.2°C 94% 2.0 mph SSW3.2 kmh SSW 6.0 mph9.7 kmh 29.77 in1008.1 mb 0.16 in4.1 mm 0.12 in3.0 mm 0.95 in24.1 mm
07:25 PM 60.6°F15.9°C 58.9°F14.9°C 94% 1.0 mph SSW1.6 kmh SSW 3.0 mph4.8 kmh 29.76 in1007.8 mb 0.13 in3.3 mm 0.00 in0.0 mm 0.95 in24.1 mm
07:30 PM 60.1°F15.6°C 58.4°F14.7°C 94% 2.0 mph SSW3.2 kmh SSW 4.0 mph6.4 kmh 29.76 in1007.8 mb 0.14 in3.6 mm 0.12 in3.0 mm 0.96 in24.4 mm
07:35 PM 59.8°F15.4°C 58.1°F14.5°C 94% Calm Calm 8.0 mph12.9 kmh 29.76 in1007.8 mb 0.14 in3.6 mm 0.00 in0.0 mm 0.96 in24.4 mm
07:40 PM 59.8°F15.4°C 58.1°F14.5°C 94% 5.0 mph SE8.0 kmh SE 7.0 mph11.3 kmh 29.75 in1007.5 mb 0.12 in3.0 mm 0.00 in0.0 mm 0.96 in24.4 mm
07:45 PM 59.7°F15.4°C 58.3°F14.6°C 95% 4.0 mph SE6.4 kmh SE 7.0 mph11.3 kmh 29.75 in1007.5 mb 0.12 in3.0 mm 0.00 in0.0 mm 0.96 in24.4 mm
07:50 PM 59.4°F15.2°C 57.7°F14.3°C 94% 4.0 mph SE6.4 kmh SE 7.0 mph11.3 kmh 29.74 in1007.1 mb 0.12 in3.0 mm 0.00 in0.0 mm 0.96 in24.4 mm
07:55 PM 59.2°F15.1°C 57.8°F14.3°C 95% 5.0 mph SE8.0 kmh SE 5.0 mph8.0 kmh 29.74 in1007.1 mb 0.07 in1.8 mm 0.00 in0.0 mm 0.96 in24.4 mm
08:00 PM 59.0°F15.0°C 57.6°F14.2°C 95% 3.0 mph SE4.8 kmh SE 5.0 mph8.0 kmh 29.74 in1007.1 mb 0.07 in1.8 mm 0.00 in0.0 mm 0.96 in24.4 mm
08:05 PM 58.6°F14.8°C 56.9°F13.8°C 94% 1.0 mph SE1.6 kmh SE 5.0 mph8.0 kmh 29.73 in1006.8 mb 0.07 in1.8 mm 0.00 in0.0 mm 0.96 in24.4 mm
08:10 PM 58.4°F14.7°C 57.0°F13.9°C 95% Calm Calm -- 29.73 in1006.8 mb 0.04 in1.0 mm 0.00 in0.0 mm 0.96 in24.4 mm
08:15 PM 58.7°F14.8°C 57.3°F14.1°C 95% 4.0 mph SE6.4 kmh SE 4.0 mph6.4 kmh 29.73 in1006.8 mb 0.04 in1.0 mm 0.00 in0.0 mm 0.96 in24.4 mm
08:20 PM 59.3°F15.2°C 58.2°F14.6°C 96% 2.0 mph SE3.2 kmh SE 5.0 mph8.0 kmh 29.73 in1006.8 mb 0.04 in1.0 mm 0.00 in0.0 mm 0.96 in24.4 mm
08:25 PM 59.5°F15.3°C 58.4°F14.7°C 96% 3.0 mph SE4.8 kmh SE 4.0 mph6.4 kmh 29.73 in1006.8 mb 0.01 in0.3 mm 0.00 in0.0 mm 0.96 in24.4 mm
08:30 PM 59.9°F15.5°C 58.8°F14.9°C 96% 2.0 mph SE3.2 kmh SE 4.0 mph6.4 kmh 29.73 in1006.8 mb 0.01 in0.3 mm 0.00 in0.0 mm 0.96 in24.4 mm
08:35 PM 60.0°F15.6°C 58.9°F14.9°C 96% 3.0 mph SE4.8 kmh SE 4.0 mph6.4 kmh 29.73 in1006.8 mb 0.01 in0.3 mm 0.00 in0.0 mm 0.96 in24.4 mm
08:40 PM 59.4°F15.2°C 58.0°F14.4°C 95% 3.0 mph SE4.8 kmh SE 4.0 mph6.4 kmh 29.72 in1006.4 mb 0.00 in0.0 mm 0.00 in0.0 mm 0.96 in24.4 mm
08:45 PM 59.4°F15.2°C 58.3°F14.6°C 96% 1.0 mph SE1.6 kmh SE 4.0 mph6.4 kmh 29.73 in1006.8 mb 0.00 in0.0 mm 0.00 in0.0 mm 0.96 in24.4 mm
08:50 PM 59.1°F15.1°C 58.0°F14.4°C 96% 4.0 mph SE6.4 kmh SE 5.0 mph8.0 kmh 29.73 in1006.8 mb 0.00 in0.0 mm 0.00 in0.0 mm 0.96 in24.4 mm
08:55 PM 59.2°F15.1°C 58.1°F14.5°C 96% 5.0 mph SE8.0 kmh SE 5.0 mph8.0 kmh 29.72 in1006.4 mb 0.00 in0.0 mm 0.00 in0.0 mm 0.96 in24.4 mm
09:00 PM 59.4°F15.2°C 58.3°F14.6°C 96% 4.0 mph SE6.4 kmh SE 7.0 mph11.3 kmh 29.72 in1006.4 mb 0.00 in0.0 mm 0.00 in0.0 mm 0.96 in24.4 mm
09:05 PM 59.5°F15.3°C 58.4°F14.7°C 96% 4.0 mph SE6.4 kmh SE 7.0 mph11.3 kmh 29.72 in1006.4 mb 0.00 in0.0 mm 0.00 in0.0 mm 0.96 in24.4 mm
09:10 PM 59.9°F15.5°C 58.8°F14.9°C 96% Calm Calm -- 29.72 in1006.4 mb 0.00 in0.0 mm 0.00 in0.0 mm 0.96 in24.4 mm
09:15 PM 60.2°F15.7°C 59.1°F15.1°C 96% 1.0 mph SE1.6 kmh SE 5.0 mph8.0 kmh 29.72 in1006.4 mb 0.00 in0.0 mm 0.00 in0.0 mm 0.96 in24.4 mm
09:20 PM 60.1°F15.6°C 59.0°F15.0°C 96% 2.0 mph SE3.2 kmh SE 5.0 mph8.0 kmh 29.72 in1006.4 mb 0.00 in0.0 mm 0.00 in0.0 mm 0.96 in24.4 mm
09:25 PM 60.4°F15.8°C 59.3°F15.2°C 96% 4.0 mph SE6.4 kmh SE 5.0 mph8.0 kmh 29.72 in1006.4 mb 0.00 in0.0 mm 0.00 in0.0 mm 0.96 in24.4 mm
09:30 PM 60.1°F15.6°C 59.0°F15.0°C 96% 2.0 mph SE3.2 kmh SE 5.0 mph8.0 kmh 29.72 in1006.4 mb 0.00 in0.0 mm 0.00 in0.0 mm 0.96 in24.4 mm
09:35 PM 59.5°F15.3°C 58.4°F14.7°C 96% 2.0 mph SE3.2 kmh SE 5.0 mph8.0 kmh 29.72 in1006.4 mb 0.00 in0.0 mm 0.00 in0.0 mm 0.96 in24.4 mm
09:40 PM 59.3°F15.2°C 58.2°F14.6°C 96% 1.0 mph SE1.6 kmh SE 1.0 mph1.6 kmh 29.72 in1006.4 mb 0.00 in0.0 mm 0.00 in0.0 mm 0.96 in24.4 mm
09:45 PM 59.5°F15.3°C 58.4°F14.7°C 96% 3.0 mph SE4.8 kmh SE 5.0 mph8.0 kmh 29.72 in1006.4 mb 0.00 in0.0 mm 0.00 in0.0 mm 0.96 in24.4 mm
09:50 PM 59.6°F15.3°C 58.5°F14.7°C 96% Calm Calm 5.0 mph8.0 kmh 29.73 in1006.8 mb 0.00 in0.0 mm 0.00 in0.0 mm 0.96 in24.4 mm
09:55 PM 60.0°F15.6°C 59.2°F15.1°C 97% 6.0 mph ESE9.7 kmh ESE 7.0 mph11.3 kmh 29.73 in1006.8 mb 0.00 in0.0 mm 0.00 in0.0 mm 0.96 in24.4 mm
10:00 PM 60.2°F15.7°C 59.4°F15.2°C 97% 6.0 mph E9.7 kmh E 13.0 mph20.9 kmh 29.73 in1006.8 mb 0.00 in0.0 mm 0.00 in0.0 mm 0.96 in24.4 mm
10:05 PM 60.4°F15.8°C 59.6°F15.3°C 97% 10.0 mph E16.1 kmh E 13.0 mph20.9 kmh 29.73 in1006.8 mb 0.00 in0.0 mm 0.00 in0.0 mm 0.96 in24.4 mm
10:10 PM 60.3°F15.7°C 59.2°F15.1°C 96% 8.0 mph E12.9 kmh E 9.0 mph14.5 kmh 29.73 in1006.8 mb 0.00 in0.0 mm 0.00 in0.0 mm 0.96 in24.4 mm
10:15 PM 60.2°F15.7°C 59.1°F15.1°C 96% 4.0 mph E6.4 kmh E 12.0 mph19.3 kmh 29.72 in1006.4 mb 0.00 in0.0 mm 0.00 in0.0 mm 0.96 in24.4 mm
10:20 PM 60.1°F15.6°C 59.0°F15.0°C 96% 6.0 mph E9.7 kmh E 12.0 mph19.3 kmh 29.72 in1006.4 mb 0.00 in0.0 mm 0.00 in0.0 mm 0.96 in24.4 mm
10:25 PM 60.2°F15.7°C 59.4°F15.2°C 97% 5.0 mph SE8.0 kmh SE 5.0 mph8.0 kmh 29.71 in1006.1 mb 0.00 in0.0 mm 0.00 in0.0 mm 0.96 in24.4 mm
10:30 PM 60.2°F15.7°C 59.4°F15.2°C 97% 4.0 mph SE6.4 kmh SE 8.0 mph12.9 kmh 29.72 in1006.4 mb 0.00 in0.0 mm 0.00 in0.0 mm 0.96 in24.4 mm
10:35 PM 60.3°F15.7°C 59.5°F15.3°C 97% 3.0 mph SE4.8 kmh SE 8.0 mph12.9 kmh 29.72 in1006.4 mb 0.00 in0.0 mm 0.00 in0.0 mm 0.96 in24.4 mm
10:40 PM 60.4°F15.8°C 59.6°F15.3°C 97% 3.0 mph SE4.8 kmh SE 9.0 mph14.5 kmh 29.72 in1006.4 mb 0.00 in0.0 mm 0.00 in0.0 mm 0.96 in24.4 mm
10:45 PM 60.5°F15.8°C 59.7°F15.4°C 97% 5.0 mph SE8.0 kmh SE 10.0 mph16.1 kmh 29.73 in1006.8 mb 0.00 in0.0 mm 0.00 in0.0 mm 0.96 in24.4 mm
10:50 PM 60.6°F15.9°C 59.8°F15.4°C 97% 2.0 mph SE3.2 kmh SE 10.0 mph16.1 kmh 29.72 in1006.4 mb 0.00 in0.0 mm 0.00 in0.0 mm 0.96 in24.4 mm
10:55 PM 60.5°F15.8°C 59.7°F15.4°C 97% 3.0 mph SE4.8 kmh SE 4.0 mph6.4 kmh 29.72 in1006.4 mb 0.00 in0.0 mm 0.00 in0.0 mm 0.96 in24.4 mm
11:00 PM 60.1°F15.6°C 59.0°F15.0°C 96% Calm Calm 4.0 mph6.4 kmh 29.72 in1006.4 mb 0.00 in0.0 mm 0.00 in0.0 mm 0.96 in24.4 mm
11:05 PM 60.0°F15.6°C 59.2°F15.1°C 97% Calm Calm 4.0 mph6.4 kmh 29.73 in1006.8 mb 0.00 in0.0 mm 0.00 in0.0 mm 0.96 in24.4 mm
11:10 PM 60.0°F15.6°C 59.2°F15.1°C 97% 1.0 mph SE1.6 kmh SE 1.0 mph1.6 kmh 29.73 in1006.8 mb 0.00 in0.0 mm 0.00 in0.0 mm 0.96 in24.4 mm
11:15 PM 60.2°F15.7°C 59.4°F15.2°C 97% 3.0 mph S4.8 kmh S 6.0 mph9.7 kmh 29.73 in1006.8 mb 0.00 in0.0 mm 0.00 in0.0 mm 0.96 in24.4 mm
11:20 PM 60.5°F15.8°C 59.7°F15.4°C 97% 4.0 mph S6.4 kmh S 6.0 mph9.7 kmh 29.73 in1006.8 mb 0.00 in0.0 mm 0.00 in0.0 mm 0.96 in24.4 mm
11:25 PM 60.9°F16.1°C 60.1°F15.6°C 97% 4.0 mph S6.4 kmh S 4.0 mph6.4 kmh 29.74 in1007.1 mb 0.00 in0.0 mm 0.00 in0.0 mm 0.96 in24.4 mm
11:30 PM 61.2°F16.2°C 60.4°F15.8°C 97% 3.0 mph S4.8 kmh S 6.0 mph9.7 kmh 29.74 in1007.1 mb 0.00 in0.0 mm 0.00 in0.0 mm 0.96 in24.4 mm
11:35 PM 61.4°F16.3°C 60.5°F15.8°C 97% Calm Calm 6.0 mph9.7 kmh 29.73 in1006.8 mb 0.00 in0.0 mm 0.00 in0.0 mm 0.96 in24.4 mm
11:40 PM 61.5°F16.4°C 60.6°F15.9°C 97% 2.0 mph S3.2 kmh S 4.0 mph6.4 kmh 29.73 in1006.8 mb 0.00 in0.0 mm 0.00 in0.0 mm 0.96 in24.4 mm
11:45 PM 61.6°F16.4°C 60.7°F15.9°C 97% 3.0 mph S4.8 kmh S 4.0 mph6.4 kmh 29.73 in1006.8 mb 0.00 in0.0 mm 0.00 in0.0 mm 0.96 in24.4 mm
11:50 PM 61.8°F16.6°C 60.9°F16.1°C 97% 2.0 mph SSW3.2 kmh SSW 7.0 mph11.3 kmh 29.73 in1006.8 mb 0.00 in0.0 mm 0.00 in0.0 mm 0.96 in24.4 mm
11:55 PM 61.9°F16.6°C 61.0°F16.1°C 97% 3.0 mph WSW4.8 kmh WSW 5.0 mph8.0 kmh 29.72 in1006.4 mb 0.00 in0.0 mm 0.00 in0.0 mm 0.96 in24.4 mm